TAF Text Data
IDs:
Format:
Raw Decoded Include METAR

Data at: 0231 UTC 29 Nov 2020

KBNA 282320Z 2900/2924 09003KT P6SM SCT200
  FM291400 14006KT P6SM FEW025 SCT150
  FM292200 11004KT P6SM VCSH SCT025 BKN040